createdAt,value
2022-09-02T00:02:28.484Z,16.40
2022-09-02T00:05:01.481Z,16.50
2022-09-02T00:07:48.344Z,16.35
2022-09-02T00:10:21.441Z,16.50
2022-09-02T00:13:08.364Z,14.65
2022-09-02T00:15:41.458Z,15.55
2022-09-02T00:18:28.386Z,15.85
2022-09-02T00:21:02.433Z,16.85
2022-09-02T00:23:50.374Z,17.60
2022-09-02T00:26:24.732Z,16.52
2022-09-02T00:29:12.370Z,15.98
2022-09-02T00:31:52.489Z,16.70
2022-09-02T00:34:46.388Z,16.67
2022-09-02T00:37:40.378Z,16.85
2022-09-02T00:40:27.411Z,16.83
2022-09-02T00:43:07.389Z,16.38
2022-09-02T00:46:02.462Z,17.08
2022-09-02T00:49:45.409Z,17.23
2022-09-02T00:52:28.381Z,17.17
2022-09-02T00:55:21.405Z,16.38
2022-09-02T00:58:00.895Z,16.73
2022-09-02T01:00:51.484Z,17.10
2022-09-02T01:03:28.870Z,16.88
2022-09-02T01:06:22.392Z,15.55
2022-09-02T01:09:09.433Z,15.95
2022-09-02T01:12:03.378Z,17.35
2022-09-02T01:14:57.397Z,18.48
2022-09-02T01:17:52.386Z,17.38
2022-09-02T01:20:36.413Z,15.98
2022-09-02T01:23:33.780Z,16.90
2022-09-02T01:26:21.392Z,15.02
2022-09-02T01:28:54.473Z,15.82
2022-09-02T01:31:41.462Z,15.60
2022-09-02T01:34:21.419Z,15.90
2022-09-02T01:37:08.410Z,16.13
2022-09-02T01:39:48.392Z,15.15
2022-09-02T01:42:36.411Z,16.33
2022-09-02T01:45:10.795Z,16.20
2022-09-02T01:47:58.408Z,15.27
2022-09-02T01:50:31.690Z,14.85
2022-09-02T01:53:18.451Z,15.52
2022-09-02T01:55:59.413Z,14.77
2022-09-02T01:58:53.391Z,16.27
2022-09-02T02:01:42.519Z,15.55
2022-09-02T02:04:17.481Z,16.65
2022-09-02T02:07:04.426Z,16.35
2022-09-02T02:09:44.415Z,15.95
2022-09-02T02:12:38.425Z,16.90
2022-09-02T02:18:19.419Z,15.80
2022-09-02T02:21:00.429Z,16.05
2022-09-02T02:23:54.417Z,16.63
2022-09-02T02:26:42.444Z,14.85
2022-09-02T02:29:29.413Z,15.77
2022-09-02T02:32:03.361Z,14.45
2022-09-02T02:34:50.430Z,15.18
2022-09-02T02:37:25.616Z,16.17
2022-09-02T02:40:12.467Z,15.10
2022-09-02T02:42:45.878Z,15.80
2022-09-02T02:45:32.432Z,19.90
2022-09-02T02:48:26.429Z,14.35
2022-09-02T02:51:21.427Z,16.50
2022-09-02T02:54:09.442Z,17.05
2022-09-02T02:56:42.499Z,14.98
2022-09-02T02:59:29.446Z,14.88
2022-09-02T03:02:02.573Z,15.85
2022-09-02T03:04:49.484Z,16.58
2022-09-02T03:07:29.461Z,15.32
2022-09-02T03:10:21.502Z,16.73
2022-09-02T03:13:01.472Z,15.00
2022-09-02T03:15:49.505Z,14.82
2022-09-02T03:18:22.614Z,15.38
2022-09-02T03:21:14.456Z,15.80
2022-09-02T03:23:47.488Z,16.15
2022-09-02T03:26:35.471Z,14.63
2022-09-02T03:29:08.529Z,16.50
2022-09-02T03:31:55.477Z,15.68
2022-09-02T03:34:30.508Z,14.73
2022-09-02T03:37:17.477Z,16.00
2022-09-02T03:39:50.531Z,14.65
2022-09-02T03:42:37.475Z,15.35
2022-09-02T03:45:22.444Z,15.55
2022-09-02T03:48:16.451Z,15.32
2022-09-02T03:51:03.462Z,15.32
2022-09-02T03:53:43.470Z,20.02
2022-09-02T03:56:31.480Z,16.23
2022-09-02T03:59:11.474Z,14.70
2022-09-02T04:02:05.535Z,14.10
2022-09-02T04:04:59.478Z,13.57
2022-09-02T04:07:47.467Z,14.80
2022-09-02T04:10:22.076Z,14.13
2022-09-02T04:13:08.475Z,13.40
2022-09-02T04:15:48.248Z,14.48
2022-09-02T04:18:36.475Z,14.57
2022-09-02T04:21:16.464Z,15.98
2022-09-02T04:24:10.476Z,12.00
2022-09-02T04:27:00.694Z,14.45
2022-09-02T04:29:36.570Z,13.13
2022-09-02T04:32:23.489Z,14.45
2022-09-02T04:34:56.583Z,16.08
2022-09-02T04:37:43.477Z,16.25
2022-09-02T04:40:16.680Z,14.73
2022-09-02T04:43:03.499Z,17.05
2022-09-02T04:45:36.563Z,14.88
2022-09-02T04:48:23.475Z,16.13
2022-09-02T04:50:56.570Z,13.75
2022-09-02T04:53:43.485Z,15.63
2022-09-02T04:56:19.911Z,13.50
2022-09-02T04:59:06.463Z,14.65
2022-09-02T05:01:42.294Z,15.23
2022-09-02T05:04:30.485Z,18.73
2022-09-02T05:07:04.621Z,16.60
2022-09-02T05:09:51.514Z,14.80
2022-09-02T05:12:34.487Z,14.57
2022-09-02T05:15:28.515Z,15.05
2022-09-02T05:18:22.489Z,15.85
2022-09-02T05:21:13.497Z,15.40
2022-09-02T05:23:54.525Z,14.40
2022-09-02T05:26:42.481Z,15.02
2022-09-02T05:29:22.502Z,13.60
2022-09-02T05:32:16.494Z,14.43
2022-09-02T05:35:03.512Z,18.23
2022-09-02T05:37:36.687Z,18.63
2022-09-02T05:40:23.561Z,22.23
2022-09-02T05:42:56.585Z,17.40
2022-09-02T05:45:45.524Z,17.25
2022-09-02T05:48:57.512Z,16.52
2022-09-02T05:52:02.509Z,16.92
2022-09-02T05:54:49.516Z,18.27
2022-09-02T05:57:23.631Z,15.95
2022-09-02T06:00:17.748Z,15.10
2022-09-02T06:02:58.604Z,16.83
2022-09-02T06:05:47.511Z,15.82
2022-09-02T06:08:27.516Z,14.30
2022-09-02T06:11:24.506Z,14.77
2022-09-02T06:14:12.540Z,12.73
2022-09-02T06:16:47.666Z,12.25
2022-09-02T06:19:39.522Z,10.68
2022-09-02T06:22:12.651Z,13.40
2022-09-02T06:24:59.509Z,16.75
2022-09-02T06:27:33.602Z,15.50
2022-09-02T06:30:20.526Z,11.55
2022-09-02T06:32:54.170Z,10.95
2022-09-02T06:35:47.511Z,14.02
2022-09-02T06:38:21.640Z,14.63
2022-09-02T06:41:08.541Z,12.77
2022-09-02T06:43:42.702Z,16.80
2022-09-02T06:46:39.617Z,15.48
2022-09-02T06:49:26.555Z,15.30
2022-09-02T06:52:01.603Z,14.23
2022-09-02T06:54:48.547Z,13.23
2022-09-02T06:57:22.645Z,12.55
2022-09-02T07:00:19.549Z,13.05
2022-09-02T07:03:19.553Z,14.48
2022-09-02T07:06:16.574Z,15.48
2022-09-02T07:08:50.685Z,15.93
2022-09-02T07:11:37.540Z,14.50
2022-09-02T07:14:17.592Z,14.35
2022-09-02T07:17:11.649Z,16.92
2022-09-02T07:19:58.575Z,13.40
2022-09-02T07:22:34.619Z,14.05
2022-09-02T07:25:22.582Z,16.35
2022-09-02T07:27:56.378Z,15.65
2022-09-02T07:30:43.701Z,12.27
2022-09-02T07:33:20.970Z,12.90
2022-09-02T07:36:12.507Z,14.40
2022-09-02T07:38:54.611Z,14.85
2022-09-02T07:41:49.551Z,15.57
2022-09-02T07:44:43.574Z,12.82
2022-09-02T07:47:37.646Z,15.20
2022-09-02T07:50:25.571Z,17.77
2022-09-02T07:52:59.659Z,15.82
2022-09-02T07:55:47.561Z,14.02
2022-09-02T07:58:23.743Z,16.65
2022-09-02T08:01:11.699Z,15.93
2022-09-02T08:03:47.676Z,15.07
2022-09-02T08:06:35.582Z,13.77
2022-09-02T08:09:14.637Z,13.68
2022-09-02T08:12:01.600Z,14.50
2022-09-02T08:14:41.568Z,14.70
2022-09-02T08:17:35.598Z,14.55
2022-09-02T08:20:23.602Z,15.48
2022-09-02T08:23:05.852Z,16.00
2022-09-02T08:25:58.581Z,14.82
2022-09-02T08:28:35.293Z,13.75
2022-09-02T08:31:21.684Z,15.52
2022-09-02T08:33:54.741Z,13.35
2022-09-02T08:36:41.597Z,13.80
2022-09-02T08:39:20.768Z,12.05
2022-09-02T08:42:21.572Z,13.10
2022-09-02T08:44:56.681Z,14.23
2022-09-02T08:47:46.590Z,13.25
2022-09-02T08:50:31.626Z,13.48
2022-09-02T08:53:36.611Z,14.98
2022-09-02T08:56:19.618Z,17.45
2022-09-02T08:59:09.611Z,17.35
2022-09-02T09:02:26.667Z,16.10
2022-09-02T09:05:31.632Z,15.30
2022-09-02T09:08:38.663Z,15.07
2022-09-02T09:11:34.622Z,15.85
2022-09-02T09:14:29.632Z,17.58
2022-09-02T09:17:38.619Z,15.23
2022-09-02T09:20:29.620Z,16.02
2022-09-02T09:23:11.638Z,17.90
2022-09-02T09:26:12.632Z,17.50
2022-09-02T09:29:02.629Z,16.23
2022-09-02T09:31:38.813Z,17.15
2022-09-02T09:34:25.621Z,17.90
2022-09-02T09:37:07.635Z,17.98
2022-09-02T09:39:54.622Z,17.00
2022-09-02T09:42:49.576Z,18.80
2022-09-02T09:45:42.679Z,18.55
2022-09-02T09:48:22.653Z,17.23
2022-09-02T09:51:16.658Z,17.90
2022-09-02T09:54:29.613Z,19.13
2022-09-02T09:57:25.638Z,18.23
2022-09-02T10:00:17.709Z,19.02
2022-09-02T10:03:13.654Z,18.23
2022-09-02T10:05:46.723Z,18.75
2022-09-02T10:08:34.646Z,19.23
2022-09-02T10:11:12.752Z,19.65
2022-09-02T10:14:12.654Z,19.48
2022-09-02T10:17:05.650Z,20.77
2022-09-02T10:20:21.647Z,16.58
2022-09-02T10:22:59.977Z,17.38
2022-09-02T10:26:09.635Z,18.48
2022-09-02T10:29:15.671Z,17.80
2022-09-02T10:32:05.657Z,16.23
2022-09-02T10:34:54.651Z,16.80
2022-09-02T10:38:06.749Z,18.70
2022-09-02T10:41:01.674Z,16.83
2022-09-02T10:44:10.659Z,16.05
2022-09-02T10:47:13.679Z,15.73
2022-09-02T10:50:41.666Z,17.10
2022-09-02T10:53:39.788Z,19.50
2022-09-02T10:56:33.673Z,17.15
2022-09-02T10:59:28.743Z,18.02
2022-09-02T11:02:34.696Z,20.27
2022-09-02T11:05:20.803Z,19.00
2022-09-02T11:08:31.395Z,20.75
2022-09-02T11:11:17.669Z,20.58
2022-09-02T11:14:10.776Z,15.20
2022-09-02T11:17:23.693Z,15.63
2022-09-02T11:20:09.778Z,17.55
2022-09-02T11:23:12.669Z,16.45
2022-09-02T11:25:56.805Z,15.57
2022-09-02T11:28:50.683Z,14.10
2022-09-02T11:31:39.319Z,16.58
2022-09-02T11:34:41.724Z,14.48
2022-09-02T11:37:56.692Z,14.55
2022-09-02T11:44:00.760Z,17.65
2022-09-02T11:47:03.748Z,15.85
2022-09-02T11:50:03.702Z,16.23
2022-09-02T11:53:31.721Z,14.80
2022-09-02T11:56:26.697Z,14.85
2022-09-02T11:58:59.791Z,15.75
2022-09-02T12:02:12.705Z,17.17
2022-09-02T12:05:00.094Z,17.50
2022-09-02T12:07:56.687Z,14.02
2022-09-02T12:10:54.712Z,13.30
2022-09-02T12:13:55.721Z,16.73
2022-09-02T12:16:55.706Z,11.43
2022-09-02T12:19:46.713Z,13.45
2022-09-02T12:22:31.745Z,12.70
2022-09-02T12:25:40.731Z,12.65
2022-09-02T12:28:32.715Z,14.10
2022-09-02T12:31:15.837Z,14.55
2022-09-02T12:34:02.717Z,13.57
2022-09-02T12:36:51.738Z,11.77
2022-09-02T12:39:45.704Z,13.68
2022-09-02T12:42:39.718Z,13.90
2022-09-02T12:45:29.407Z,12.15
2022-09-02T12:48:38.138Z,14.95
2022-09-02T12:52:08.730Z,13.65
2022-09-02T12:54:56.741Z,12.90
2022-09-02T12:57:45.940Z,14.60
2022-09-02T13:00:54.767Z,15.30
2022-09-02T13:04:04.751Z,12.75
2022-09-02T13:07:44.790Z,16.02
2022-09-02T13:10:41.740Z,14.48
2022-09-02T13:13:21.876Z,16.05
2022-09-02T13:16:20.777Z,13.57
2022-09-02T13:19:38.754Z,15.55
2022-09-02T13:23:01.754Z,16.38
2022-09-02T13:26:45.509Z,12.27
2022-09-02T13:30:00.758Z,14.73
2022-09-02T13:32:37.858Z,17.83
2022-09-02T13:35:30.751Z,14.63
2022-09-02T13:38:06.969Z,13.25
2022-09-02T13:40:53.773Z,14.43
2022-09-02T13:43:36.765Z,14.35
2022-09-02T13:46:30.775Z,12.80
2022-09-02T13:49:37.330Z,14.73
2022-09-02T13:53:27.713Z,13.05
2022-09-02T13:55:48.779Z,15.02
2022-09-02T13:58:50.867Z,15.35
2022-09-02T14:01:40.017Z,15.13
2022-09-02T14:04:24.767Z,13.25
2022-09-02T14:07:15.760Z,14.80
2022-09-02T14:09:50.867Z,12.90
2022-09-02T14:12:40.779Z,13.10
2022-09-02T14:15:16.943Z,15.60
2022-09-02T14:18:35.783Z,16.45
2022-09-02T14:21:32.776Z,12.65
2022-09-02T14:24:28.780Z,14.05
2022-09-02T14:27:28.771Z,13.98
2022-09-02T14:30:09.252Z,15.60
2022-09-02T14:32:55.782Z,14.90
2022-09-02T14:35:30.082Z,16.05
2022-09-02T14:38:29.790Z,15.52
2022-09-02T14:41:12.946Z,14.70
2022-09-02T14:44:14.791Z,14.02
2022-09-02T14:47:02.776Z,14.30
2022-09-02T14:50:01.795Z,16.60
2022-09-02T14:52:54.797Z,16.73
2022-09-02T14:55:53.789Z,13.93
2022-09-02T14:58:48.266Z,14.90
2022-09-02T15:01:34.860Z,14.98
2022-09-02T15:04:07.927Z,12.63
2022-09-02T15:06:55.789Z,14.35
2022-09-02T15:09:28.918Z,13.07
2022-09-02T15:12:15.797Z,14.35
2022-09-02T15:14:53.922Z,12.38
2022-09-02T15:17:40.803Z,14.52
2022-09-02T15:20:21.838Z,14.30
2022-09-02T15:23:15.812Z,13.82
2022-09-02T15:26:09.799Z,12.55
2022-09-02T15:29:03.818Z,13.10
2022-09-02T15:31:50.818Z,14.90
2022-09-02T15:34:23.916Z,13.23
2022-09-02T15:37:13.087Z,12.70
2022-09-02T15:39:46.979Z,14.05
2022-09-02T15:42:33.809Z,13.18
2022-09-02T15:45:09.054Z,13.57
2022-09-02T15:48:02.816Z,14.52
2022-09-02T15:50:49.907Z,15.85
2022-09-02T15:53:34.838Z,12.77
2022-09-02T15:56:26.828Z,15.48
2022-09-02T15:59:02.976Z,18.00
2022-09-02T16:01:52.882Z,13.50
2022-09-02T16:04:27.407Z,13.07
2022-09-02T16:07:16.896Z,13.05
2022-09-02T16:10:01.344Z,13.82
2022-09-02T16:12:56.856Z,15.25
2022-09-02T16:15:43.844Z,12.02
2022-09-02T16:18:24.834Z,11.55
2022-09-02T16:21:13.837Z,15.15
2022-09-02T16:23:46.927Z,14.13
2022-09-02T16:26:41.850Z,13.27
2022-09-02T16:29:28.167Z,12.52
2022-09-02T16:32:27.324Z,13.77
2022-09-02T16:35:14.847Z,12.15
2022-09-02T16:37:54.824Z,13.65
2022-09-02T16:40:48.853Z,14.45
2022-09-02T16:43:38.852Z,13.57
2022-09-02T16:46:12.039Z,12.40
2022-09-02T16:48:58.863Z,12.23
2022-09-02T16:51:33.525Z,15.07
2022-09-02T16:54:21.320Z,14.70
2022-09-02T16:57:03.947Z,13.20
2022-09-02T16:59:50.882Z,13.45
2022-09-02T17:02:24.029Z,15.80
2022-09-02T17:05:10.889Z,13.07
2022-09-02T17:07:45.374Z,12.38
2022-09-02T17:10:31.855Z,14.75
2022-09-02T17:13:04.979Z,12.43
2022-09-02T17:15:51.857Z,13.63
2022-09-02T17:18:24.952Z,13.93
2022-09-02T17:21:29.887Z,13.25
2022-09-02T17:24:03.965Z,12.98
2022-09-02T17:26:53.866Z,14.07
2022-09-02T17:29:48.452Z,15.10
2022-09-02T17:32:35.871Z,14.45
2022-09-02T17:35:15.871Z,14.20
2022-09-02T17:38:09.888Z,13.68
2022-09-02T17:41:21.877Z,15.57
2022-09-02T17:44:15.887Z,14.38
2022-09-02T17:47:10.888Z,14.38
2022-09-02T17:50:04.894Z,15.30
2022-09-02T17:52:58.890Z,16.23
2022-09-02T17:55:45.919Z,15.90
2022-09-02T17:58:33.909Z,16.17
2022-09-02T18:01:31.017Z,15.48
2022-09-02T18:05:07.915Z,16.55
2022-09-02T18:08:18.974Z,15.95
2022-09-02T18:11:09.906Z,13.75
2022-09-02T18:14:20.890Z,14.68
2022-09-02T18:17:27.899Z,16.33
2022-09-02T18:20:24.890Z,15.48
2022-09-02T18:23:29.905Z,16.05
2022-09-02T18:26:25.926Z,15.93
2022-09-02T18:29:40.944Z,15.82
2022-09-02T18:33:05.914Z,15.82
2022-09-02T18:35:55.706Z,14.90
2022-09-02T18:38:59.918Z,15.52
2022-09-02T18:42:18.056Z,16.92
2022-09-02T18:45:16.290Z,17.10
2022-09-02T18:48:07.952Z,14.45
2022-09-02T18:51:07.924Z,15.65
2022-09-02T18:54:17.919Z,17.58
2022-09-02T18:57:07.922Z,16.17
2022-09-02T19:00:01.099Z,16.13
2022-09-02T19:03:00.916Z,16.05
2022-09-02T19:05:37.066Z,15.02
2022-09-02T19:08:41.927Z,16.63
2022-09-02T19:11:29.941Z,17.70
2022-09-02T19:14:42.955Z,17.17
2022-09-02T19:17:29.941Z,20.92
2022-09-02T19:20:09.930Z,21.00
2022-09-02T19:23:06.939Z,17.80
2022-09-02T19:25:53.921Z,18.80
2022-09-02T19:28:29.090Z,16.58
2022-09-02T19:31:20.984Z,16.25
2022-09-02T19:33:57.108Z,16.73
2022-09-02T19:36:46.938Z,16.80
2022-09-02T19:39:27.015Z,16.40
2022-09-02T19:42:13.940Z,18.45
2022-09-02T19:44:54.945Z,17.75
2022-09-02T19:50:55.947Z,16.88
2022-09-02T19:53:37.963Z,18.60
2022-09-02T19:56:31.960Z,18.50
2022-09-02T19:59:25.947Z,17.67
2022-09-02T20:02:13.020Z,16.70
2022-09-02T20:04:52.951Z,19.20
2022-09-02T20:07:39.961Z,18.27
2022-09-02T20:10:15.055Z,17.17
2022-09-02T20:13:06.997Z,19.08
2022-09-02T20:15:44.038Z,19.02
2022-09-02T20:18:32.969Z,17.88
2022-09-02T20:21:07.069Z,17.75
2022-09-02T20:23:54.002Z,18.75
2022-09-02T20:27:11.045Z,19.38
2022-09-02T20:30:21.982Z,19.65
2022-09-02T20:33:14.021Z,18.70
2022-09-02T20:36:24.959Z,19.23
2022-09-02T20:39:31.027Z,19.05
2022-09-02T20:42:49.975Z,19.02
2022-09-02T20:45:51.997Z,18.63
2022-09-02T20:48:55.977Z,17.50
2022-09-02T20:51:48.966Z,19.40
2022-09-02T20:54:46.215Z,19.33
2022-09-02T20:57:46.954Z,20.13
2022-09-02T21:00:24.098Z,20.77
2022-09-02T21:03:17.978Z,19.75
2022-09-02T21:06:04.993Z,20.83
2022-09-02T21:09:06.003Z,20.13
2022-09-02T21:11:49.920Z,20.55
2022-09-02T21:14:52.979Z,21.92
2022-09-02T21:17:52.108Z,19.40
2022-09-02T21:20:53.005Z,20.00
2022-09-02T21:23:29.264Z,21.23
2022-09-02T21:27:09.001Z,21.40
2022-09-02T21:29:57.919Z,19.90
2022-09-02T21:32:53.016Z,20.92
2022-09-02T21:35:39.989Z,21.63
2022-09-02T21:38:35.028Z,22.73
2022-09-02T21:41:34.023Z,22.08
2022-09-02T21:44:43.010Z,21.42
2022-09-02T21:47:56.020Z,20.33
2022-09-02T21:51:16.009Z,20.20
2022-09-02T21:54:05.023Z,19.80
2022-09-02T21:57:38.023Z,22.00
2022-09-02T22:00:32.074Z,20.50
2022-09-02T22:03:37.011Z,19.58
2022-09-02T22:06:19.082Z,20.85
2022-09-02T22:09:21.020Z,20.33
2022-09-02T22:12:03.654Z,22.52
2022-09-02T22:14:59.034Z,21.48
2022-09-02T22:18:11.024Z,20.33
2022-09-02T22:21:10.008Z,19.85
2022-09-02T22:24:01.043Z,19.75
2022-09-02T22:27:10.021Z,20.83
2022-09-02T22:30:21.045Z,19.33
2022-09-02T22:33:18.039Z,19.17
2022-09-02T22:36:29.125Z,18.88
2022-09-02T22:39:17.030Z,20.77
2022-09-02T22:41:58.880Z,21.75
2022-09-02T22:45:05.046Z,20.50
2022-09-02T22:48:08.033Z,19.33
2022-09-02T22:51:28.039Z,20.20
2022-09-02T22:54:22.042Z,19.80
2022-09-02T22:57:37.051Z,21.42
2022-09-02T23:00:16.123Z,19.58
2022-09-02T23:03:21.091Z,20.35
2022-09-02T23:06:04.050Z,19.10
2022-09-02T23:08:58.043Z,18.33
2022-09-02T23:11:54.054Z,19.95
2022-09-02T23:14:48.137Z,20.42
2022-09-02T23:17:41.045Z,21.30
2022-09-02T23:20:25.425Z,22.23
2022-09-02T23:23:33.062Z,19.25
2022-09-02T23:26:32.055Z,19.45
2022-09-02T23:29:33.067Z,21.80
2022-09-02T23:33:04.122Z,19.45
2022-09-02T23:36:00.064Z,19.52
2022-09-02T23:38:53.067Z,19.77
2022-09-02T23:41:48.082Z,20.40
2022-09-02T23:44:36.080Z,19.40
2022-09-02T23:47:24.149Z,19.52
2022-09-02T23:50:38.073Z,20.05
2022-09-02T23:54:04.067Z,18.45
2022-09-02T23:57:34.084Z,17.80
